首页
METAR-TAF:

METAR-TAF

机场 :

克洛维 / Cannon, 新墨西哥州, 美国

纬度: 34-23N, 经度: 103-19W, 海拔: 1309米

当前天气观测

该预报发布于51分钟前的10:55 UTC
风速6节,风向
温度 24°C
湿度 54%
气压 1016 hPa
能見度: 16.1公里
多云层高于17000英尺
阴天层高于19000英尺

METAR: KCVS 251055Z 17006KT 10SM BKN170 OVC190 24/14 A2999 RMK AO2A SLP079 T02430144 $

时间: 05:46 (11:46 UTC)

预报

该预报发布于1小时和51分钟前的09:55 UTC
预报有效从25日的 10点(UTC)到 26日的 16点(UTC)
风速6节,风向多变
能见度10公里或以上
少量云层高于9000英尺
散云层高于13000英尺
多云层高于19000英尺
成为
从 25日的 13点(UTC)到 25日的 14点(UTC)
风速12节,风向南转西南,有时为20节阵风
能见度10公里或以上
少量云层高于9000英尺
散云层高于13000英尺
多云层高于19000英尺
成为
从 25日的 15点(UTC)到 25日的 16点(UTC)
风速8节,风向西南
能见度10公里或以上
少量云层高于10000英尺
散云层高于14000英尺
成为
从 25日的 21点(UTC)到 25日的 22点(UTC)
风速12节,风向,有时为20节阵风
能见度10公里或以上
少量云层高于10000英尺
散云层高于14000英尺, 积雨云.
附近有雷暴
短暂存在
从 25日的 22点(UTC)到 26日的 01点(UTC)
风速25节,风向多变,有时为35节阵风
能見度: 9000
多云层高于14000英尺, 积雨云.
雷暴, 小雨
成为
从 26日的 01点(UTC)到 26日的 02点(UTC)
风速6节,风向
能见度10公里或以上
少量云层高于10000英尺

TAF: KCVS 250955Z 2510/2616 VRB06KT 9999 FEW090 SCT130 BKN190 QNH3001INS BECMG 2513/2514 21012G20KT 9999 FEW090 SCT130 BKN190 QNH3002INS BECMG 2515/2516 22008KT 9999 FEW100 SCT140 QNH2995INS BECMG 2521/2522 19012G20KT 9999 VCTS FEW100 SCT140CB QNH2992INS TEMPO 2522/2601 VRB25G35KT 9000 -TSRA BKN140CB BECMG 2601/2602 18006KT 9999 NSW FEW100 QNH2994INS TX37/2519Z TN23/2512Z

超过4000个机场的气象观测和天气预报(METAR&TAF报告)。

可查询的气象台以黄色和红色小点在地图上表示。

将鼠标移到小点上方,可查看气象台名称。

然后点击查看天气观测和预报。

如需切换地图:点击带黑十字的绿色按钮放大地图;点击带横线的绿色按钮缩小地图;或者点击绿色箭头查看邻近地区的地图。


METAR-TAF: